createdAt,value
2018-03-01T00:00:37.815Z,70.60
2018-03-01T00:03:05.362Z,71.00
2018-03-01T00:05:33.681Z,70.80
2018-03-01T00:08:01.216Z,70.80
2018-03-01T00:10:28.775Z,70.50
2018-03-01T00:12:56.295Z,70.30
2018-03-01T00:15:23.829Z,70.40
2018-03-01T00:17:51.369Z,71.00
2018-03-01T00:20:18.932Z,69.90
2018-03-01T00:22:46.497Z,70.00
2018-03-01T00:25:14.028Z,70.30
2018-03-01T00:27:41.578Z,70.50
2018-03-01T00:30:09.893Z,70.80
2018-03-01T00:32:37.437Z,70.80
2018-03-01T00:35:04.989Z,71.50
2018-03-01T00:37:32.579Z,71.30
2018-03-01T00:40:00.867Z,71.30
2018-03-01T00:42:28.425Z,71.20
2018-03-01T00:44:55.962Z,71.40
2018-03-01T00:47:23.525Z,71.90
2018-03-01T00:49:51.091Z,72.40
2018-03-01T00:52:18.652Z,72.40
2018-03-01T00:54:46.194Z,72.00
2018-03-01T00:57:13.736Z,71.50
2018-03-01T00:59:41.348Z,71.60
2018-03-01T01:02:08.880Z,71.70
2018-03-01T01:04:36.415Z,72.40
2018-03-01T01:07:03.964Z,72.50
2018-03-01T01:09:32.281Z,72.20
2018-03-01T01:11:59.828Z,72.20
2018-03-01T01:14:27.358Z,72.70
2018-03-01T01:16:55.681Z,72.50
2018-03-01T01:19:23.224Z,72.50
2018-03-01T01:21:50.789Z,72.80
2018-03-01T01:24:18.370Z,72.10
2018-03-01T01:26:45.918Z,72.30
2018-03-01T01:29:13.453Z,72.40
2018-03-01T01:31:41.009Z,72.50
2018-03-01T01:34:08.558Z,72.80
2018-03-01T01:36:36.086Z,72.90
2018-03-01T01:39:03.690Z,72.80
2018-03-01T01:41:31.238Z,73.80
2018-03-01T01:43:58.796Z,72.50
2018-03-01T01:46:26.330Z,72.80
2018-03-01T01:48:54.660Z,72.50
2018-03-01T01:51:22.218Z,72.60
2018-03-01T01:53:49.767Z,72.40
2018-03-01T01:56:17.323Z,72.00
2018-03-01T01:58:44.873Z,72.30
2018-03-01T02:01:12.427Z,72.40
2018-03-01T02:03:39.982Z,72.20
2018-03-01T02:06:07.563Z,72.30
2018-03-01T02:08:35.113Z,72.10
2018-03-01T02:11:02.676Z,72.20
2018-03-01T02:13:30.219Z,72.20
2018-03-01T02:15:58.563Z,72.20
2018-03-01T02:18:26.100Z,72.20
2018-03-01T02:20:53.658Z,72.60
2018-03-01T02:23:21.238Z,73.00
2018-03-01T02:25:49.824Z,73.20
2018-03-01T02:28:17.388Z,72.70
2018-03-01T02:30:44.914Z,72.50
2018-03-01T02:33:12.465Z,72.70
2018-03-01T02:35:40.024Z,72.30
2018-03-01T02:38:07.586Z,72.40
2018-03-01T02:40:35.153Z,73.10
2018-03-01T02:43:02.709Z,73.30
2018-03-01T02:45:30.284Z,74.00
2018-03-01T02:47:57.849Z,73.30
2018-03-01T02:50:25.441Z,73.30
2018-03-01T02:52:53.761Z,73.10
2018-03-01T02:55:21.321Z,73.10
2018-03-01T02:57:48.864Z,72.90
2018-03-01T03:00:16.432Z,73.10
2018-03-01T03:02:44.002Z,72.90
2018-03-01T03:05:11.601Z,73.00
2018-03-01T03:07:39.137Z,73.20
2018-03-01T03:10:07.451Z,72.90
2018-03-01T03:12:35.767Z,73.30
2018-03-01T03:15:03.342Z,73.30
2018-03-01T03:17:30.907Z,73.10
2018-03-01T03:19:58.472Z,72.70
2018-03-01T03:22:26.033Z,73.60
2018-03-01T03:24:53.570Z,72.80
2018-03-01T03:27:21.166Z,72.70
2018-03-01T03:29:48.694Z,73.30
2018-03-01T03:32:16.228Z,73.20
2018-03-01T03:34:43.792Z,73.20
2018-03-01T03:37:11.326Z,73.30
2018-03-01T03:39:39.636Z,73.30
2018-03-01T03:42:07.154Z,73.30
2018-03-01T03:44:34.694Z,73.10
2018-03-01T03:47:02.241Z,73.00
2018-03-01T03:49:29.811Z,72.80
2018-03-01T03:51:57.357Z,73.40
2018-03-01T03:54:24.919Z,74.00
2018-03-01T03:56:52.483Z,74.00
2018-03-01T03:59:20.034Z,73.90
2018-03-01T04:01:47.590Z,73.20
2018-03-01T04:04:15.145Z,73.10
2018-03-01T04:06:42.720Z,73.20
2018-03-01T04:09:11.029Z,72.70
2018-03-01T04:11:39.359Z,72.90
2018-03-01T04:14:06.911Z,72.90
2018-03-01T04:16:34.475Z,73.40
2018-03-01T04:19:02.026Z,73.40
2018-03-01T04:21:29.575Z,73.50
2018-03-01T04:23:57.119Z,73.90
2018-03-01T04:26:25.441Z,73.10
2018-03-01T04:28:53.003Z,73.20
2018-03-01T04:31:20.547Z,73.00
2018-03-01T04:33:48.109Z,73.40
2018-03-01T04:36:15.671Z,73.60
2018-03-01T04:38:43.236Z,73.20
2018-03-01T04:41:10.754Z,72.70
2018-03-01T04:43:38.283Z,72.90
2018-03-01T04:46:05.938Z,73.20
2018-03-01T04:48:33.488Z,73.60
2018-03-01T04:51:01.062Z,73.50
2018-03-01T04:53:28.625Z,73.40
2018-03-01T04:55:56.173Z,73.50
2018-03-01T04:58:23.709Z,72.60
2018-03-01T05:00:51.260Z,72.80
2018-03-01T05:03:18.779Z,73.20
2018-03-01T05:05:47.103Z,73.10
2018-03-01T05:08:14.661Z,73.10
2018-03-01T05:10:42.202Z,73.20
2018-03-01T05:13:09.775Z,73.90
2018-03-01T05:15:38.098Z,73.70
2018-03-01T05:18:05.660Z,73.60
2018-03-01T05:20:33.960Z,74.30
2018-03-01T05:23:01.537Z,74.20
2018-03-01T05:25:29.083Z,74.10
2018-03-01T05:27:56.653Z,74.10
2018-03-01T05:30:24.202Z,73.90
2018-03-01T05:32:51.768Z,73.80
2018-03-01T05:35:19.977Z,73.80
2018-03-01T05:37:48.327Z,74.60
2018-03-01T05:40:15.883Z,74.70
2018-03-01T05:42:43.423Z,74.70
2018-03-01T05:45:10.990Z,75.00
2018-03-01T05:47:38.548Z,74.30
2018-03-01T05:50:06.089Z,74.30
2018-03-01T05:52:34.395Z,74.70
2018-03-01T05:55:02.013Z,74.70
2018-03-01T05:57:29.514Z,74.20
2018-03-01T05:59:57.056Z,74.40
2018-03-01T06:02:25.372Z,74.50
2018-03-01T06:04:52.908Z,74.60
2018-03-01T06:07:20.466Z,74.80
2018-03-01T06:09:48.018Z,74.90
2018-03-01T06:12:15.580Z,74.50
2018-03-01T06:14:43.125Z,74.00
2018-03-01T06:17:11.467Z,74.10
2018-03-01T06:19:39.034Z,74.20
2018-03-01T06:22:06.598Z,74.40
2018-03-01T06:24:34.165Z,75.00
2018-03-01T06:27:01.756Z,74.80
2018-03-01T06:29:29.323Z,75.10
2018-03-01T06:31:56.878Z,75.00
2018-03-01T06:34:24.436Z,74.60
2018-03-01T06:36:51.992Z,74.70
2018-03-01T06:39:19.569Z,74.70
2018-03-01T06:41:47.121Z,75.10
2018-03-01T06:44:14.718Z,75.00
2018-03-01T06:46:42.262Z,75.10
2018-03-01T06:49:09.867Z,75.50
2018-03-01T06:51:37.408Z,74.90
2018-03-01T06:54:04.973Z,75.10
2018-03-01T06:56:32.553Z,74.60
2018-03-01T06:59:00.896Z,73.60
2018-03-01T07:01:28.448Z,73.60
2018-03-01T07:03:55.999Z,73.00
2018-03-01T07:06:23.576Z,72.80
2018-03-01T07:08:51.132Z,71.60
2018-03-01T07:11:18.700Z,71.40
2018-03-01T07:13:46.261Z,71.70
2018-03-01T07:16:13.802Z,71.80
2018-03-01T07:18:41.365Z,72.70
2018-03-01T07:21:08.896Z,73.30
2018-03-01T07:23:36.455Z,73.50
2018-03-01T07:26:03.983Z,73.50
2018-03-01T07:28:32.321Z,72.30
2018-03-01T07:30:59.845Z,72.40
2018-03-01T07:33:27.406Z,72.40
2018-03-01T07:35:54.956Z,72.70
2018-03-01T07:38:22.505Z,72.60
2018-03-01T07:40:50.803Z,72.70
2018-03-01T07:43:19.481Z,72.60
2018-03-01T07:45:47.219Z,73.10
2018-03-01T07:48:14.806Z,73.50
2018-03-01T07:50:42.346Z,72.70
2018-03-01T07:53:10.665Z,73.30
2018-03-01T07:55:38.234Z,73.40
2018-03-01T07:58:05.783Z,73.30
2018-03-01T08:00:33.311Z,73.30
2018-03-01T08:03:01.634Z,72.20
2018-03-01T08:05:29.153Z,72.30
2018-03-01T08:07:56.920Z,72.20
2018-03-01T08:10:24.463Z,71.90
2018-03-01T08:12:52.787Z,71.90
2018-03-01T08:15:20.322Z,72.00
2018-03-01T08:17:47.876Z,72.30
2018-03-01T08:20:15.428Z,72.10
2018-03-01T08:22:42.965Z,71.60
2018-03-01T08:25:11.290Z,72.40
2018-03-01T08:27:38.815Z,72.40
2018-03-01T08:30:07.135Z,71.20
2018-03-01T08:32:34.693Z,71.20
2018-03-01T08:35:02.256Z,70.40
2018-03-01T08:37:29.818Z,70.30
2018-03-01T08:39:57.391Z,70.70
2018-03-01T08:42:24.950Z,70.60
2018-03-01T08:44:52.514Z,70.80
2018-03-01T08:47:20.053Z,70.10
2018-03-01T08:49:47.592Z,70.80
2018-03-01T08:52:15.147Z,70.20
2018-03-01T08:54:42.675Z,71.30
2018-03-01T08:57:11.001Z,70.50
2018-03-01T08:59:38.545Z,70.50
2018-03-01T09:02:06.396Z,70.50
2018-03-01T09:04:33.940Z,70.50
2018-03-01T09:07:02.277Z,70.50
2018-03-01T09:09:29.856Z,70.50
2018-03-01T09:11:57.381Z,70.10
2018-03-01T09:14:24.961Z,70.10
2018-03-01T09:16:52.504Z,69.40
2018-03-01T09:19:20.041Z,69.60
2018-03-01T09:21:47.600Z,70.10
2018-03-01T09:24:15.172Z,70.30
2018-03-01T09:26:42.705Z,69.00
2018-03-01T09:29:11.005Z,67.40
2018-03-01T09:31:38.526Z,67.50
2018-03-01T09:34:06.858Z,66.50
2018-03-01T09:36:34.408Z,66.50
2018-03-01T09:39:01.931Z,65.90
2018-03-01T09:41:30.247Z,65.30
2018-03-01T09:43:57.761Z,65.40
2018-03-01T09:46:26.067Z,65.40
2018-03-01T09:48:53.647Z,65.30
2018-03-01T09:51:21.208Z,67.00
2018-03-01T09:53:48.741Z,67.50
2018-03-01T09:56:16.333Z,66.70
2018-03-01T09:58:43.887Z,67.10
2018-03-01T10:01:11.430Z,66.80
2018-03-01T10:03:39.003Z,67.30
2018-03-01T10:06:06.572Z,66.30
2018-03-01T10:08:34.132Z,67.30
2018-03-01T10:11:01.650Z,67.10
2018-03-01T10:13:29.199Z,66.70
2018-03-01T10:15:56.758Z,66.30
2018-03-01T10:18:25.057Z,67.00
2018-03-01T10:20:52.578Z,67.00
2018-03-01T10:23:21.276Z,66.30
2018-03-01T10:25:48.859Z,66.20
2018-03-01T10:28:16.391Z,65.70
2018-03-01T10:30:44.709Z,66.10
2018-03-01T10:33:12.246Z,66.10
2018-03-01T10:35:39.797Z,66.80
2018-03-01T10:38:08.093Z,66.20
2018-03-01T10:40:35.652Z,66.10
2018-03-01T10:43:03.193Z,65.10
2018-03-01T10:45:30.765Z,66.00
2018-03-01T10:47:58.289Z,67.10
2018-03-01T10:50:25.820Z,67.30
2018-03-01T10:52:53.377Z,65.70
2018-03-01T10:55:20.924Z,66.60
2018-03-01T10:57:49.255Z,66.10
2018-03-01T11:00:23.171Z,66.50
2018-03-01T11:02:51.514Z,65.50
2018-03-01T11:05:19.067Z,65.50
2018-03-01T11:07:46.622Z,64.80
2018-03-01T11:10:14.175Z,65.00
2018-03-01T11:12:41.756Z,64.50
2018-03-01T11:15:09.294Z,65.20
2018-03-01T11:17:36.815Z,64.90
2018-03-01T11:20:04.411Z,65.90
2018-03-01T11:22:31.952Z,65.30
2018-03-01T11:24:59.495Z,65.10
2018-03-01T11:27:27.028Z,67.10
2018-03-01T11:29:55.368Z,65.90
2018-03-01T11:32:22.933Z,65.90
2018-03-01T11:34:50.512Z,65.70
2018-03-01T11:37:18.080Z,65.80
2018-03-01T11:39:46.390Z,65.70
2018-03-01T11:42:13.933Z,65.60
2018-03-01T11:44:42.235Z,64.60
2018-03-01T11:47:09.792Z,64.60
2018-03-01T11:49:37.799Z,64.30
2018-03-01T11:52:05.356Z,65.80
2018-03-01T11:54:32.905Z,66.60
2018-03-01T11:57:00.486Z,64.60
2018-03-01T11:59:28.013Z,65.20
2018-03-01T12:01:55.570Z,64.10
2018-03-01T12:04:23.095Z,63.80
2018-03-01T12:06:51.409Z,64.80
2018-03-01T12:09:18.944Z,64.90
2018-03-01T12:11:46.508Z,64.60
2018-03-01T12:14:14.063Z,64.10
2018-03-01T12:16:41.604Z,64.50
2018-03-01T12:19:09.914Z,64.60
2018-03-01T12:21:37.436Z,64.40
2018-03-01T12:24:05.753Z,63.80
2018-03-01T12:26:33.272Z,63.80
2018-03-01T12:29:01.589Z,64.70
2018-03-01T12:31:29.145Z,64.70
2018-03-01T12:33:56.677Z,65.00
2018-03-01T12:36:25.009Z,65.50
2018-03-01T12:38:52.529Z,65.50
2018-03-01T12:41:20.070Z,62.20
2018-03-01T12:43:48.387Z,63.70
2018-03-01T12:46:15.935Z,63.70
2018-03-01T12:48:43.487Z,62.50
2018-03-01T12:51:11.060Z,64.10
2018-03-01T12:53:38.588Z,64.20
2018-03-01T12:56:06.152Z,63.40
2018-03-01T12:58:33.724Z,63.90
2018-03-01T13:01:01.267Z,63.20
2018-03-01T13:03:28.836Z,63.50
2018-03-01T13:05:56.364Z,63.30
2018-03-01T13:08:24.704Z,63.00
2018-03-01T13:10:52.245Z,63.00
2018-03-01T13:13:19.830Z,63.70
2018-03-01T13:15:48.140Z,62.20
2018-03-01T13:18:15.690Z,62.20
2018-03-01T13:20:43.270Z,63.00
2018-03-01T13:23:11.568Z,61.40
2018-03-01T13:25:39.134Z,61.40
2018-03-01T13:28:06.665Z,63.20
2018-03-01T13:30:44.914Z,62.50
2018-03-01T13:33:18.137Z,62.50
2018-03-01T13:35:45.686Z,61.80
2018-03-01T13:38:13.224Z,63.30
2018-03-01T13:40:40.783Z,63.50
2018-03-01T13:43:08.323Z,63.80
2018-03-01T13:45:38.574Z,63.50
2018-03-01T13:48:06.117Z,62.30
2018-03-01T13:50:33.666Z,62.50
2018-03-01T13:53:01.216Z,63.70
2018-03-01T13:55:28.743Z,63.30
2018-03-01T13:57:56.286Z,63.20
2018-03-01T14:00:23.799Z,62.70
2018-03-01T14:02:51.386Z,63.70
2018-03-01T14:05:18.929Z,64.00
2018-03-01T14:08:01.377Z,63.10
2018-03-01T14:10:28.906Z,62.50
2018-03-01T14:16:03.080Z,60.70
2018-03-01T14:18:36.456Z,61.40
2018-03-01T14:24:11.336Z,63.40
2018-03-01T14:29:52.878Z,62.90
2018-03-01T14:32:20.425Z,62.50
2018-03-01T14:34:48.721Z,60.80
2018-03-01T14:37:16.296Z,60.80
2018-03-01T14:39:43.842Z,60.00
2018-03-01T14:42:11.400Z,60.50
2018-03-01T14:44:38.920Z,62.10
2018-03-01T14:47:06.462Z,61.30
2018-03-01T14:49:34.006Z,60.20
2018-03-01T14:52:01.580Z,61.30
2018-03-01T14:54:29.119Z,60.60
2018-03-01T14:56:56.665Z,60.40
2018-03-01T14:59:24.236Z,60.20
2018-03-01T15:01:51.788Z,61.50
2018-03-01T15:04:19.360Z,61.30
2018-03-01T15:06:46.895Z,60.60
2018-03-01T15:09:14.455Z,60.60
2018-03-01T15:11:42.007Z,61.20
2018-03-01T15:14:09.555Z,61.10
2018-03-01T15:16:37.100Z,60.80
2018-03-01T15:19:05.432Z,60.50
2018-03-01T15:21:32.958Z,60.50
2018-03-01T15:24:00.503Z,60.40
2018-03-01T15:26:28.082Z,59.20
2018-03-01T15:28:55.601Z,60.10
2018-03-01T15:31:23.135Z,60.10
2018-03-01T15:33:50.688Z,61.40
2018-03-01T15:36:18.283Z,58.80
2018-03-01T15:38:46.596Z,59.50
2018-03-01T15:41:14.147Z,59.50
2018-03-01T15:43:41.673Z,58.40
2018-03-01T15:46:09.209Z,58.50
2018-03-01T15:48:36.764Z,59.80
2018-03-01T15:51:04.286Z,59.10
2018-03-01T15:53:31.852Z,58.50
2018-03-01T15:55:59.416Z,58.70
2018-03-01T15:58:26.968Z,57.40
2018-03-01T16:00:54.506Z,57.90
2018-03-01T16:03:22.832Z,58.40
2018-03-01T16:05:50.356Z,58.40
2018-03-01T16:08:17.917Z,58.60
2018-03-01T16:10:45.452Z,58.20
2018-03-01T16:13:13.745Z,58.50
2018-03-01T16:15:41.310Z,58.60
2018-03-01T16:18:08.852Z,59.00
2018-03-01T16:20:37.184Z,58.90
2018-03-01T16:23:04.710Z,58.90
2018-03-01T16:25:32.267Z,59.00
2018-03-01T16:27:59.787Z,59.30
2018-03-01T16:30:27.345Z,59.10
2018-03-01T16:32:54.878Z,60.00
2018-03-01T16:35:22.409Z,60.20
2018-03-01T16:37:49.959Z,60.70
2018-03-01T16:40:17.507Z,60.10
2018-03-01T16:42:45.808Z,60.90
2018-03-01T16:45:13.328Z,60.90
2018-03-01T16:47:41.633Z,61.60
2018-03-01T16:50:09.184Z,60.90
2018-03-01T16:52:36.727Z,61.10
2018-03-01T16:55:05.025Z,60.90
2018-03-01T16:57:32.564Z,60.90
2018-03-01T17:00:00.884Z,62.00
2018-03-01T17:02:28.423Z,62.00
2018-03-01T17:04:55.980Z,61.60
2018-03-01T17:07:23.528Z,60.90
2018-03-01T17:09:51.861Z,61.30
2018-03-01T17:12:19.426Z,61.30
2018-03-01T17:14:46.983Z,62.40
2018-03-01T17:17:14.540Z,61.20
2018-03-01T17:19:42.102Z,62.00
2018-03-01T17:22:09.656Z,62.10
2018-03-01T17:24:37.189Z,61.70
2018-03-01T17:27:04.765Z,62.60
2018-03-01T17:29:32.320Z,62.40
2018-03-01T17:31:59.885Z,61.80
2018-03-01T17:34:27.424Z,62.80
2018-03-01T17:36:54.979Z,62.50
2018-03-01T17:39:22.542Z,63.30
2018-03-01T17:41:50.100Z,62.70
2018-03-01T17:44:17.655Z,63.10
2018-03-01T17:46:45.216Z,62.90
2018-03-01T17:49:12.781Z,63.10
2018-03-01T17:51:40.322Z,63.40
2018-03-01T17:54:07.875Z,63.80
2018-03-01T17:56:36.172Z,63.20
2018-03-01T17:59:03.715Z,63.30
2018-03-01T18:01:32.032Z,64.20
2018-03-01T18:03:59.596Z,64.10
2018-03-01T18:06:27.149Z,63.60
2018-03-01T18:08:54.705Z,64.20
2018-03-01T18:11:22.247Z,64.20
2018-03-01T18:13:49.975Z,64.30
2018-03-01T18:16:18.309Z,64.70
2018-03-01T18:18:46.833Z,65.20
2018-03-01T18:21:14.404Z,65.20
2018-03-01T18:23:42.698Z,65.30
2018-03-01T18:26:10.248Z,65.30
2018-03-01T18:28:38.539Z,65.60
2018-03-01T18:31:06.099Z,65.60
2018-03-01T18:33:33.670Z,65.60
2018-03-01T18:36:01.203Z,66.20
2018-03-01T18:38:28.755Z,66.70
2018-03-01T18:40:57.079Z,66.40
2018-03-01T18:43:24.635Z,66.40
2018-03-01T18:45:52.167Z,66.40
2018-03-01T18:48:19.743Z,67.00
2018-03-01T18:50:47.308Z,66.30
2018-03-01T18:53:14.864Z,65.70
2018-03-01T18:55:42.422Z,65.90
2018-03-01T18:58:09.979Z,66.40
2018-03-01T19:00:37.537Z,66.30
2018-03-01T19:03:05.088Z,66.70
2018-03-01T19:05:32.641Z,66.30
2018-03-01T19:08:00.189Z,66.40
2018-03-01T19:10:28.521Z,66.40
2018-03-01T19:12:56.051Z,66.40
2018-03-01T19:15:23.589Z,66.50
2018-03-01T19:17:51.154Z,66.40
2018-03-01T19:20:18.716Z,66.90
2018-03-01T19:22:46.271Z,67.10
2018-03-01T19:25:13.823Z,67.10
2018-03-01T19:27:42.144Z,67.00
2018-03-01T19:30:09.694Z,67.00
2018-03-01T19:32:37.270Z,67.40
2018-03-01T19:35:04.809Z,67.80
2018-03-01T19:37:32.359Z,67.80
2018-03-01T19:39:59.906Z,67.70
2018-03-01T19:42:27.475Z,68.10
2018-03-01T19:44:55.034Z,68.00
2018-03-01T19:47:22.578Z,68.20
2018-03-01T19:49:50.166Z,68.50
2018-03-01T19:52:17.713Z,68.60
2018-03-01T19:54:45.260Z,68.60
2018-03-01T19:57:12.822Z,68.70
2018-03-01T19:59:40.393Z,68.80
2018-03-01T20:02:07.921Z,69.00
2018-03-01T20:04:36.249Z,69.40
2018-03-01T20:07:03.787Z,69.30
2018-03-01T20:09:31.338Z,69.40
2018-03-01T20:11:58.865Z,69.70
2018-03-01T20:14:26.389Z,69.80
2018-03-01T20:16:53.937Z,69.80
2018-03-01T20:19:21.497Z,69.80
2018-03-01T20:21:49.058Z,69.90
2018-03-01T20:24:16.636Z,70.00
2018-03-01T20:26:44.475Z,70.10
2018-03-01T20:29:12.018Z,70.20
2018-03-01T20:31:39.582Z,70.20
2018-03-01T20:34:07.101Z,70.50
2018-03-01T20:36:34.620Z,70.60
2018-03-01T20:39:02.188Z,70.70
2018-03-01T20:41:29.737Z,70.50
2018-03-01T20:43:57.288Z,70.40
2018-03-01T20:46:24.852Z,70.90
2018-03-01T20:48:52.417Z,70.70
2018-03-01T20:51:19.960Z,70.80
2018-03-01T20:53:47.532Z,70.60
2018-03-01T20:56:15.051Z,70.60
2018-03-01T20:58:43.375Z,71.20
2018-03-01T21:01:10.905Z,71.20
2018-03-01T21:03:38.457Z,71.40
2018-03-01T21:06:06.798Z,71.80
2018-03-01T21:08:34.346Z,71.90
2018-03-01T21:11:01.912Z,71.90
2018-03-01T21:13:29.445Z,72.10
2018-03-01T21:15:56.998Z,72.00
2018-03-01T21:18:24.527Z,72.30
2018-03-01T21:20:52.843Z,72.50
2018-03-01T21:23:20.397Z,72.60
2018-03-01T21:25:47.930Z,72.60
2018-03-01T21:28:15.480Z,72.40
2018-03-01T21:30:43.797Z,72.00
2018-03-01T21:33:11.347Z,72.00
2018-03-01T21:35:38.897Z,72.20
2018-03-01T21:38:06.431Z,72.10
2018-03-01T21:40:34.742Z,72.70
2018-03-01T21:43:02.297Z,72.70
2018-03-01T21:45:29.863Z,72.70
2018-03-01T21:47:57.449Z,72.60
2018-03-01T21:50:25.022Z,72.80
2018-03-01T21:52:52.567Z,72.80
2018-03-01T21:55:20.138Z,72.70
2018-03-01T21:57:47.688Z,73.10
2018-03-01T22:00:15.267Z,73.10
2018-03-01T22:02:42.808Z,73.00
2018-03-01T22:05:12.067Z,73.40
2018-03-01T22:07:39.613Z,73.90
2018-03-01T22:10:07.942Z,73.00
2018-03-01T22:12:35.482Z,73.10
2018-03-01T22:15:03.011Z,73.10
2018-03-01T22:17:31.328Z,73.10
2018-03-01T22:19:58.866Z,73.20
2018-03-01T22:22:26.427Z,73.40
2018-03-01T22:24:53.984Z,73.80
2018-03-01T22:27:21.541Z,74.20
2018-03-01T22:29:49.102Z,74.30
2018-03-01T22:32:16.672Z,74.10
2018-03-01T22:34:44.211Z,74.30
2018-03-01T22:37:11.780Z,74.60
2018-03-01T22:39:39.329Z,74.80
2018-03-01T22:42:06.854Z,74.90
2018-03-01T22:44:34.405Z,75.10
2018-03-01T22:47:01.957Z,75.50
2018-03-01T22:49:29.540Z,75.40
2018-03-01T22:51:57.853Z,75.10
2018-03-01T22:54:25.423Z,75.10
2018-03-01T22:56:53.032Z,75.10
2018-03-01T22:59:20.590Z,74.80
2018-03-01T23:01:48.898Z,75.10
2018-03-01T23:04:16.452Z,75.10
2018-03-01T23:06:44.769Z,75.20
2018-03-01T23:09:12.304Z,75.10
2018-03-01T23:11:39.855Z,75.30
2018-03-01T23:14:07.405Z,75.60
2018-03-01T23:16:34.968Z,75.50
2018-03-01T23:19:02.768Z,75.70
2018-03-01T23:21:30.343Z,75.80
2018-03-01T23:23:57.877Z,75.90
2018-03-01T23:26:25.408Z,76.10
2018-03-01T23:28:53.720Z,76.50
2018-03-01T23:31:21.270Z,76.50
2018-03-01T23:33:48.822Z,76.60
2018-03-01T23:36:16.368Z,76.80
2018-03-01T23:38:43.912Z,77.00
2018-03-01T23:41:12.212Z,77.00
2018-03-01T23:43:39.763Z,76.90
2018-03-01T23:46:07.314Z,77.10
2018-03-01T23:48:34.885Z,76.80
2018-03-01T23:51:02.428Z,76.80
2018-03-01T23:53:30.728Z,77.00
2018-03-01T23:55:58.270Z,77.00
2018-03-01T23:58:26.562Z,77.40
